Time;durP1;ratioP1;P1;durP2;ratioP2;P2;SDS_P1;SDS_P2;PMS_P1;PMS_P2;Temp;Humidity;BMP_temperature;BMP_pressure;BME280_temperature;BME280_humidity;BME280_pressure;Samples;Min_cycle;Max_cycle;Signal;HPM_P1;HPM_P2
2021/09/13 00:00:50;;;;;;;8.85;6.32;;;;;;;13.56;61.60;99313.84;5092195;28;20082;-77
2021/09/13 00:03:16;;;;;;;7.50;6.05;;;;;;;13.49;61.63;99307.34;5042407;28;20047;-76
2021/09/13 00:05:43;;;;;;;6.03;5.28;;;;;;;13.55;61.50;99312.16;5075406;28;20134;-76
2021/09/13 00:08:09;;;;;;;8.82;5.47;;;;;;;13.61;61.17;99316.94;5058593;28;20085;-78
2021/09/13 00:10:35;;;;;;;6.70;5.63;;;;;;;13.58;60.91;99301.13;5058543;28;20043;-77
2021/09/13 00:13:02;;;;;;;6.47;5.25;;;;;;;13.59;61.00;99295.59;5092140;28;20047;-76
2021/09/13 00:15:29;;;;;;;6.32;4.90;;;;;;;13.58;60.69;99298.44;5091830;28;20054;-78
2021/09/13 00:17:55;;;;;;;5.32;4.82;;;;;;;13.55;60.92;99294.19;5058552;28;20040;-76
2021/09/13 00:20:21;;;;;;;6.10;4.60;;;;;;;13.52;60.39;99301.69;5074800;28;20086;-77
2021/09/13 00:22:47;;;;;;;6.72;4.40;;;;;;;13.48;59.99;99305.66;5041746;28;20074;-76
2021/09/13 00:25:14;;;;;;;4.80;4.03;;;;;;;13.48;60.35;99297.59;5058733;28;20478;-78
2021/09/13 00:27:43;;;;;;;9.60;4.72;;;;;;;13.46;60.20;99284.28;5043457;28;20136;-75
2021/09/13 00:30:09;;;;;;;6.15;4.60;;;;;;;13.44;60.26;99296.19;5058273;28;20546;-76
2021/09/13 00:32:36;;;;;;;6.32;4.60;;;;;;;13.49;60.33;99285.84;5042364;28;20036;-77
2021/09/13 00:35:03;;;;;;;4.80;4.32;;;;;;;13.44;60.25;99278.25;5075239;28;20039;-77
2021/09/13 00:37:30;;;;;;;7.82;4.68;;;;;;;13.43;59.99;99298.03;5058393;28;20047;-77
2021/09/13 00:39:56;;;;;;;7.85;4.55;;;;;;;13.49;60.03;99296.59;5025619;28;20048;-76
2021/09/13 00:42:22;;;;;;;6.13;4.70;;;;;;;13.44;60.16;99296.19;5024751;28;20151;-77
2021/09/13 00:44:50;;;;;;;5.18;4.60;;;;;;;13.42;60.27;99295.47;5058286;28;20522;-78
2021/09/13 00:47:16;;;;;;;5.90;4.40;;;;;;;13.43;60.07;99297.19;5041440;28;20523;-77
2021/09/13 00:49:42;;;;;;;4.63;4.03;;;;;;;13.42;60.49;99285.56;5041389;28;20047;-77
2021/09/13 00:52:08;;;;;;;5.32;4.82;;;;;;;13.36;60.23;99297.75;5058272;28;20097;-76
2021/09/13 00:54:34;;;;;;;5.22;4.15;;;;;;;13.40;60.58;99290.25;5058329;28;20130;-76
2021/09/13 00:57:01;;;;;;;8.13;4.60;;;;;;;13.25;61.71;99289.84;5025558;28;20517;-77
2021/09/13 00:59:27;;;;;;;4.97;4.47;;;;;;;13.30;61.32;99278.66;5041315;28;20064;-75
2021/09/13 01:01:52;;;;;;;4.82;4.30;;;;;;;13.41;60.67;99277.66;5057873;28;20047;-76
2021/09/13 01:04:18;;;;;;;5.93;4.65;;;;;;;13.40;60.83;99257.19;5057512;28;20068;-76
2021/09/13 01:06:45;;;;;;;7.63;4.75;;;;;;;13.42;60.47;99264.09;5074934;28;20043;-77
2021/09/13 01:09:10;;;;;;;8.05;4.80;;;;;;;13.51;60.29;99281.22;5057882;28;20052;-77
2021/09/13 01:11:36;;;;;;;5.30;4.68;;;;;;;13.51;60.87;99284.72;5074518;28;20498;-75
2021/09/13 01:14:02;;;;;;;9.25;4.60;;;;;;;13.56;60.28;99281.63;5074503;28;20044;-79
2021/09/13 01:16:28;;;;;;;7.22;5.30;;;;;;;13.43;60.88;99281.91;5024765;28;20134;-77
2021/09/13 01:18:54;;;;;;;6.97;5.10;;;;;;;13.49;60.86;99277.81;5091178;28;20059;-77
2021/09/13 01:21:20;;;;;;;6.65;4.80;;;;;;;13.43;60.64;99259.59;5057687;28;20044;-77
2021/09/13 01:23:50;;;;;;;7.32;5.07;;;;;;;13.46;60.50;99270.03;5058972;28;20062;-79
2021/09/13 01:26:17;;;;;;;6.03;5.03;;;;;;;13.43;60.41;99264.97;5058186;28;20044;-77
2021/09/13 01:28:43;;;;;;;7.20;5.18;;;;;;;13.52;60.58;99274.84;5041356;28;20040;-79
2021/09/13 01:31:12;;;;;;;6.63;5.47;;;;;;;13.50;60.48;99268.75;5042746;28;20044;-81
2021/09/13 01:33:42;;;;;;;5.95;4.90;;;;;;;13.54;60.54;99275.53;5038906;28;20052;-77
2021/09/13 01:36:11;;;;;;;;;;;;;;;13.57;60.25;99270.72;5054611;28;20045;-77
2021/09/13 01:38:38;;;;;;;7.43;4.97;;;;;;;13.50;60.01;99266.94;5054045;28;19924;-78
2021/09/13 01:41:07;;;;;;;6.73;5.10;;;;;;;13.44;60.37;99272.03;5054068;28;20063;-79
2021/09/13 01:43:33;;;;;;;7.47;5.50;;;;;;;13.31;60.52;99257.06;5054189;28;20446;-78
2021/09/13 01:45:59;;;;;;;7.40;5.55;;;;;;;13.39;60.29;99269.78;5037206;28;20089;-79
2021/09/13 01:48:25;;;;;;;7.57;5.60;;;;;;;13.27;60.34;99255.63;5037629;28;20045;-78
2021/09/13 01:50:53;;;;;;;6.10;4.68;;;;;;;13.39;60.08;99280.50;5021854;28;20475;-77
2021/09/13 01:53:23;;;;;;;5.75;4.90;;;;;;;13.28;60.33;99273.44;5038924;28;20124;-76
2021/09/13 01:55:49;;;;;;;6.22;4.90;;;;;;;13.32;59.95;99274.00;5055168;28;20051;-77
2021/09/13 01:58:17;;;;;;;7.43;5.10;;;;;;;13.36;59.78;99275.41;5091161;28;20044;-77
2021/09/13 02:00:43;;;;;;;7.65;4.75;;;;;;;13.38;59.25;99267.22;5081538;28;20143;-77
2021/09/13 02:03:09;;;;;;;9.57;5.45;;;;;;;13.34;59.50;99267.50;5096057;28;20047;-78
2021/09/13 02:05:44;;;;;;;7.10;4.93;;;;;;;13.32;59.09;99266.81;5063742;28;20143;-78
2021/09/13 02:08:11;;;;;;;6.82;5.47;;;;;;;13.26;59.30;99259.31;5077229;28;20586;-78
2021/09/13 02:10:37;;;;;;;9.18;5.15;;;;;;;13.38;59.12;99262.69;5061093;28;20138;-79
2021/09/13 02:13:04;;;;;;;5.93;5.10;;;;;;;13.42;58.82;99269.47;5027686;28;20075;-79
2021/09/13 02:15:34;;;;;;;8.43;5.00;;;;;;;13.48;58.62;99271.59;5077717;28;20138;-78
2021/09/13 02:18:00;;;;;;;8.65;5.35;;;;;;;13.47;58.21;99275.28;5028167;28;20040;-77
2021/09/13 02:20:30;;;;;;;5.95;4.65;;;;;;;13.49;58.30;99264.38;5028931;28;20044;-77
2021/09/13 02:22:57;;;;;;;4.38;3.75;;;;;;;13.41;57.90;99257.03;5060611;28;20044;-78
2021/09/13 02:25:23;;;;;;;6.05;4.30;;;;;;;13.43;58.08;99263.13;5060346;28;20134;-79
2021/09/13 02:27:50;;;;;;;7.57;4.10;;;;;;;13.41;58.25;99265.09;5044139;28;20044;-78
2021/09/13 02:30:16;;;;;;;7.72;3.55;;;;;;;13.39;58.08;99268.91;5060189;28;20384;-77
2021/09/13 02:32:42;;;;;;;4.97;3.30;;;;;;;13.26;58.00;99253.94;5074501;28;20135;-78
2021/09/13 02:35:08;;;;;;;5.45;3.65;;;;;;;13.36;57.65;99276.25;5039840;28;20045;-78
2021/09/13 02:37:35;;;;;;;3.80;2.92;;;;;;;13.33;57.77;99275.69;5040288;28;20033;-80
2021/09/13 02:40:03;;;;;;;6.40;3.20;;;;;;;13.34;57.94;99277.38;5056617;28;20075;-78
2021/09/13 02:42:30;;;;;;;3.35;2.90;;;;;;;13.32;57.87;99269.50;5040613;28;20071;-77
2021/09/13 02:44:56;;;;;;;7.07;2.95;;;;;;;13.39;57.64;99274.25;5023728;28;20090;-79
2021/09/13 02:47:22;;;;;;;3.53;3.05;;;;;;;13.25;57.57;99257.63;5040411;28;20472;-79
2021/09/13 02:49:48;;;;;;;6.72;3.17;;;;;;;13.34;57.45;99283.59;5056858;28;20048;-78
2021/09/13 02:52:15;;;;;;;6.03;3.05;;;;;;;13.34;57.54;99280.06;5056756;28;20048;-78
2021/09/13 02:54:41;;;;;;;4.97;2.58;;;;;;;13.34;57.58;99272.84;5073204;28;20095;-79
2021/09/13 02:57:07;;;;;;;3.08;2.78;;;;;;;13.45;57.49;99281.75;5059648;28;20131;-79
2021/09/13 02:59:33;;;;;;;5.43;3.17;;;;;;;13.36;57.24;99270.06;5093380;28;20146;-79
2021/09/13 03:01:59;;;;;;;5.47;2.80;;;;;;;13.34;56.93;99275.53;5060159;28;20134;-77
2021/09/13 03:04:25;;;;;;;5.07;2.78;;;;;;;13.44;56.63;99288.13;5076884;28;20494;-77
2021/09/13 03:06:52;;;;;;;4.53;2.90;;;;;;;13.54;56.73;99288.94;5076060;28;20109;-78
2021/09/13 03:09:22;;;;;;;4.97;2.92;;;;;;;13.46;56.42;99278.06;5044649;28;20046;-78
2021/09/13 03:11:48;;;;;;;4.07;2.85;;;;;;;13.58;56.32;99282.34;5060297;28;20047;-79
2021/09/13 03:14:15;;;;;;;4.97;3.00;;;;;;;13.65;56.06;99283.44;5043975;28;20491;-77
2021/09/13 03:16:41;;;;;;;8.18;2.75;;;;;;;13.56;55.68;99270.88;5059648;28;20048;-79
2021/09/13 03:19:06;;;;;;;3.50;2.60;;;;;;;13.64;55.62;99284.44;5026618;28;20144;-77
2021/09/13 03:21:32;;;;;;;13.48;3.08;;;;;;;13.73;55.64;99286.25;5043445;28;20487;-78
2021/09/13 03:24:00;;;;;;;9.50;2.80;;;;;;;13.80;55.68;99282.00;5043747;28;20044;-78
2021/09/13 03:26:26;;;;;;;5.45;2.50;;;;;;;13.69;55.33;99274.13;5043015;28;20039;-77
2021/09/13 03:28:53;;;;;;;12.88;3.10;;;;;;;13.69;55.35;99259.81;5026739;28;20487;-76
2021/09/13 03:31:19;;;;;;;4.45;3.20;;;;;;;13.91;55.29;99280.13;5075932;28;20055;-77
2021/09/13 03:33:46;;;;;;;7.55;2.80;;;;;;;14.00;54.28;99290.00;5043114;28;20127;-77
2021/09/13 03:36:12;;;;;;;6.20;2.83;;;;;;;14.13;54.61;99289.69;5075757;28;20176;-78
2021/09/13 03:38:38;;;;;;;5.53;3.00;;;;;;;14.24;53.87;99282.28;5042380;28;20058;-77
2021/09/13 03:41:08;;;;;;;6.45;3.08;;;;;;;14.33;54.12;99265.28;5092619;28;20051;-78
2021/09/13 03:43:34;;;;;;;7.13;2.90;;;;;;;14.41;53.16;99286.03;5042576;28;20040;-77
2021/09/13 03:46:00;;;;;;;4.63;2.40;;;;;;;14.34;53.00;99277.72;5042194;28;20044;-76
2021/09/13 03:48:33;;;;;;;3.45;2.42;;;;;;;14.45;53.30;99279.38;5044295;28;20093;-78
2021/09/13 03:50:59;;;;;;;15.65;3.28;;;;;;;14.57;52.69;99271.97;5059061;28;20079;-76
2021/09/13 03:53:25;;;;;;;50.72;3.78;;;;;;;14.63;52.74;99265.13;5059107;28;20039;-77
2021/09/13 03:55:51;;;;;;;6.65;2.47;;;;;;;14.71;52.14;99260.72;5026713;28;20040;-76
2021/09/13 03:58:17;;;;;;;9.63;2.55;;;;;;;14.87;52.28;99272.66;5042271;28;20092;-76
2021/09/13 04:00:44;;;;;;;6.43;2.60;;;;;;;14.85;51.65;99258.47;5058760;28;20056;-78
2021/09/13 04:03:20;;;;;;;3.00;2.22;;;;;;;14.99;51.91;99266.03;5028455;28;20040;-77
2021/09/13 04:05:49;;;;;;;5.20;2.45;;;;;;;15.05;51.15;99281.59;5076243;28;20048;-76
2021/09/13 04:08:46;;;;;;;9.30;2.40;;;;;;;14.99;51.00;99256.13;5091948;28;20054;-76
2021/09/13 04:14:36;;;;;;;5.18;2.58;;;;;;;14.98;51.24;99272.44;5080837;28;20047;-78
2021/09/13 04:17:22;;;;;;;6.57;2.97;;;;;;;14.89;50.94;99265.25;5077744;28;20048;-79
2021/09/13 04:20:17;;;;;;;5.13;2.95;;;;;;;15.10;51.00;99278.44;5066429;28;20043;-79
2021/09/13 04:23:13;;;;;;;7.10;2.80;;;;;;;15.09;50.66;99277.59;5079913;28;20048;-80
2021/09/13 04:26:01;;;;;;;10.57;3.45;;;;;;;14.99;50.99;99277.66;5048182;28;20557;-79
2021/09/13 04:28:46;;;;;;;9.40;2.80;;;;;;;14.96;50.85;99275.25;5078054;28;20043;-78
2021/09/13 04:31:34;;;;;;;7.00;2.80;;;;;;;14.91;50.58;99276.72;5064238;28;20043;-79
2021/09/13 04:34:20;;;;;;;8.27;2.58;;;;;;;14.89;51.27;99270.63;5043443;28;20120;-81
2021/09/13 04:37:18;;;;;;;9.07;2.92;;;;;;;14.79;51.34;99276.09;5079161;28;20097;-79
2021/09/13 04:40:08;;;;;;;10.85;2.72;;;;;;;14.82;50.94;99282.03;5063349;28;20047;-80
2021/09/13 04:43:08;;;;;;;4.13;2.42;;;;;;;14.97;50.66;99281.47;5068082;28;20093;-80
2021/09/13 04:46:01;;;;;;;6.28;2.25;;;;;;;15.02;50.48;99271.13;5090392;28;20100;-80
2021/09/13 04:49:05;;;;;;;7.57;2.50;;;;;;;14.87;50.06;99265.41;5099533;28;20502;-83
2021/09/13 04:51:57;;;;;;;5.05;2.45;;;;;;;14.82;50.18;99279.34;5077899;28;20043;-79
2021/09/13 04:54:28;;;;;;;8.63;2.55;;;;;;;14.81;50.53;99263.31;5076242;28;20529;-77
2021/09/13 04:56:54;;;;;;;34.90;3.00;;;;;;;14.87;50.32;99272.66;5042065;28;20039;-82
2021/09/13 04:59:20;;;;;;;5.22;2.72;;;;;;;14.97;50.66;99274.28;5058244;28;20059;-79
2021/09/13 05:01:46;;;;;;;46.30;4.60;;;;;;;15.07;50.65;99276.88;5058642;28;20414;-82
2021/09/13 05:04:14;;;;;;;20.95;4.35;;;;;;;15.12;50.21;99274.59;5042097;28;20040;-81
2021/09/13 05:06:40;;;;;;;13.38;3.22;;;;;;;15.07;49.92;99261.56;5058727;28;20076;-82
2021/09/13 05:09:08;;;;;;;17.43;2.87;;;;;;;15.15;50.10;99279.66;5043254;28;20035;-80
2021/09/13 05:11:35;;;;;;;10.68;3.00;;;;;;;15.14;50.37;99272.59;5057525;28;20121;-79
2021/09/13 05:14:01;;;;;;;34.85;4.45;;;;;;;15.14;50.43;99264.50;5057663;28;20048;-79
2021/09/13 05:16:30;;;;;;;3.60;3.05;;;;;;;15.23;50.25;99274.38;5057693;28;20047;-80
2021/09/13 05:18:56;;;;;;;19.65;4.80;;;;;;;15.10;50.10;99271.19;5025487;28;20040;-79
2021/09/13 05:21:22;;;;;;;11.40;3.58;;;;;;;15.10;50.18;99279.28;5056646;28;20490;-80
2021/09/13 05:23:54;;;;;;;15.98;3.13;;;;;;;15.09;50.58;99269.50;5059568;28;20159;-78
2021/09/13 05:26:21;;;;;;;27.90;4.60;;;;;;;15.25;50.41;99275.03;5024646;28;20051;-80
2021/09/13 05:28:47;;;;;;;10.30;3.63;;;;;;;15.32;50.27;99271.75;5041224;28;20419;-81
2021/09/13 05:31:13;;;;;;;39.85;4.55;;;;;;;15.40;49.90;99256.50;5044298;28;20047;-82
2021/09/13 05:33:39;;;;;;;26.15;4.22;;;;;;;15.62;50.40;99268.63;5044988;28;20098;-81
2021/09/13 05:36:05;;;;;;;15.45;4.13;;;;;;;15.90;49.89;99265.81;5028197;28;20051;-81
2021/09/13 05:38:35;;;;;;;12.48;4.07;;;;;;;16.13;49.50;99263.41;5062278;28;20048;-81
2021/09/13 05:41:18;;;;;;;9.18;3.80;;;;;;;16.30;48.86;99264.38;5052452;28;20061;-79
2021/09/13 05:43:44;;;;;;;10.55;3.60;;;;;;;16.41;48.42;99262.22;5044582;28;20062;-81
2021/09/13 05:46:11;;;;;;;7.95;3.63;;;;;;;16.52;48.23;99261.09;5061396;28;20135;-80
2021/09/13 05:48:37;;;;;;;11.57;4.10;;;;;;;16.49;47.96;99266.81;5052599;28;20160;-79
2021/09/13 05:51:03;;;;;;;6.82;3.10;;;;;;;16.55;47.15;99268.88;5025838;28;20048;-79
2021/09/13 05:53:29;;;;;;;7.47;4.07;;;;;;;16.44;47.50;99263.75;5057277;28;20040;-80
2021/09/13 05:55:55;;;;;;;7.32;4.03;;;;;;;16.34;47.94;99271.13;5024262;28;20442;-80
2021/09/13 05:58:21;;;;;;;10.85;4.40;;;;;;;16.44;47.73;99264.59;5040905;28;20559;-79
2021/09/13 06:00:52;;;;;;;10.32;4.00;;;;;;;16.74;47.26;99271.31;5042704;28;20094;-79
2021/09/13 06:03:18;;;;;;;6.45;3.78;;;;;;;16.70;46.97;99275.31;5040651;28;20045;-79
2021/09/13 06:06:10;;;;;;;13.85;3.47;;;;;;;16.64;47.34;99250.84;5072862;28;20053;-78
2021/09/13 06:08:37;;;;;;;7.30;3.90;;;;;;;16.84;46.88;99265.75;5057219;28;20039;-78
2021/09/13 06:11:04;;;;;;;10.82;4.40;;;;;;;16.80;47.10;99266.25;5057381;28;20048;-79
2021/09/13 06:13:31;;;;;;;7.97;3.83;;;;;;;16.88;47.21;99261.72;5024302;28;20048;-78
2021/09/13 06:15:57;;;;;;;11.43;4.50;;;;;;;17.00;46.83;99259.59;5040938;28;20045;-78
2021/09/13 06:18:23;;;;;;;7.70;4.50;;;;;;;17.15;46.89;99263.31;5040232;28;20063;-80
2021/09/13 06:20:49;;;;;;;7.45;4.45;;;;;;;17.28;45.75;99248.47;5041616;28;20051;-80
2021/09/13 06:23:15;;;;;;;9.50;3.88;;;;;;;17.34;45.66;99247.78;5040223;28;20098;-80
2021/09/13 06:25:42;;;;;;;9.80;4.40;;;;;;;17.51;46.07;99251.34;5071836;28;20048;-80
2021/09/13 06:28:11;;;;;;;7.28;4.10;;;;;;;17.84;45.47;99263.00;5025320;28;20113;-78
2021/09/13 06:30:37;;;;;;;13.25;4.68;;;;;;;18.06;44.58;99265.00;5040989;28;20051;-80
2021/09/13 06:33:07;;;;;;;11.18;3.25;;;;;;;17.84;43.39;99225.16;5037877;28;20411;-82
2021/09/13 06:35:38;;;;;;;6.78;3.53;;;;;;;17.99;44.06;99255.03;5055622;28;20403;-79
2021/09/13 06:38:19;;;;;;;7.93;3.42;;;;;;;18.12;43.92;99260.72;5038994;28;20071;-78
2021/09/13 06:40:49;;;;;;;10.82;3.20;;;;;;;18.07;42.73;99236.91;5038572;28;20424;-79
2021/09/13 06:43:18;;;;;;;7.57;2.80;;;;;;;17.81;42.80;99206.56;5040122;28;20072;-81
2021/09/13 06:45:57;;;;;;;8.00;2.60;;;;;;;17.93;43.38;99229.50;5023634;28;20131;-79
2021/09/13 06:48:23;;;;;;;4.70;2.30;;;;;;;17.89;43.16;99241.69;5057077;28;20050;-79
2021/09/13 06:50:50;;;;;;;7.20;2.58;;;;;;;17.81;43.10;99234.44;5051982;28;20070;-80
2021/09/13 06:53:20;;;;;;;3.00;2.15;;;;;;;17.89;42.82;99247.09;5042511;28;20048;-80
2021/09/13 06:55:48;;;;;;;6.70;2.50;;;;;;;17.81;42.79;99231.72;5041564;28;20499;-80
2021/09/13 06:58:16;;;;;;;10.90;2.40;;;;;;;17.98;42.87;99254.19;5057872;28;20040;-78
2021/09/13 07:00:44;;;;;;;9.15;2.13;;;;;;;18.04;42.46;99252.66;5052876;28;20593;-79
2021/09/13 07:03:10;;;;;;;5.78;1.90;;;;;;;17.97;41.39;99220.03;5052887;28;20043;-78
2021/09/13 07:05:39;;;;;;;5.25;1.92;;;;;;;18.17;41.70;99217.78;5037438;28;20053;-79
2021/09/13 07:08:07;;;;;;;9.93;2.40;;;;;;;18.34;41.68;99194.19;5054221;28;20032;-80
2021/09/13 07:10:35;;;;;;;7.30;2.20;;;;;;;18.60;41.31;99210.97;5054521;28;20052;-81
2021/09/13 07:13:04;;;;;;;5.75;2.15;;;;;;;18.74;41.48;99214.00;5020723;28;20587;-80
2021/09/13 07:15:36;;;;;;;8.07;2.20;;;;;;;19.06;40.92;99215.63;5038455;28;20054;-81
2021/09/13 07:18:08;;;;;;;6.38;2.85;;;;;;;19.40;39.64;99204.34;5038976;28;20052;-80
2021/09/13 07:20:36;;;;;;;3.55;2.30;;;;;;;19.79;39.90;99211.50;5038614;28;20177;-80
2021/09/13 07:23:03;;;;;;;3.33;2.10;;;;;;;19.92;38.51;99208.13;5004896;28;20040;-79
2021/09/13 07:25:30;;;;;;;9.02;2.20;;;;;;;19.94;38.73;99223.19;5004613;28;20074;-79
2021/09/13 07:27:57;;;;;;;11.52;2.25;;;;;;;19.85;38.60;99183.63;5021614;28;20135;-80
2021/09/13 07:30:23;;;;;;;9.48;2.40;;;;;;;20.22;38.06;99223.38;5037775;28;20048;-80
2021/09/13 07:32:53;;;;;;;7.18;2.40;;;;;;;19.89;37.53;99196.59;5054331;28;20127;-78
2021/09/13 07:35:25;;;;;;;4.97;2.10;;;;;;;19.73;37.96;99196.78;5054356;28;20051;-79
2021/09/13 07:37:53;;;;;;;5.20;2.08;;;;;;;19.89;38.34;99222.91;5040204;28;20105;-79
2021/09/13 07:40:21;;;;;;;7.45;2.67;;;;;;;19.68;38.47;99190.25;5057529;28;20110;-79
2021/09/13 07:42:50;;;;;;;6.85;2.22;;;;;;;19.80;38.14;99186.06;5040849;28;20063;-80
2021/09/13 07:45:16;;;;;;;6.63;2.55;;;;;;;20.13;38.15;99214.50;5041148;28;20044;-80
2021/09/13 07:47:44;;;;;;;6.78;2.30;;;;;;;20.26;37.60;99197.53;5057796;28;20082;-80
2021/09/13 07:50:11;;;;;;;8.23;2.13;;;;;;;20.45;36.83;99187.13;5073993;28;20130;-79
2021/09/13 07:52:37;;;;;;;5.05;2.05;;;;;;;20.77;36.46;99172.28;5056575;28;20079;-80
2021/09/13 07:55:07;;;;;;;20.77;2.55;;;;;;;21.38;35.85;99194.44;5049690;28;20040;-79
2021/09/13 07:57:35;;;;;;;9.10;2.30;;;;;;;21.61;35.93;99194.22;5053704;28;20098;-79
2021/09/13 08:00:04;;;;;;;5.65;2.42;;;;;;;21.81;35.58;99184.34;5036916;28;20091;-80
2021/09/13 08:02:39;;;;;;;7.63;2.15;;;;;;;22.14;35.06;99174.69;5055093;28;20048;-79
2021/09/13 08:05:09;;;;;;;9.07;2.38;;;;;;;22.17;34.73;99164.25;5036969;28;20476;-79
2021/09/13 08:07:36;;;;;;;11.82;2.70;;;;;;;22.31;34.98;99159.72;5053727;28;20063;-79
2021/09/13 08:10:05;;;;;;;9.48;2.10;;;;;;;22.65;34.15;99144.31;5037453;28;20079;-78
2021/09/13 08:12:34;;;;;;;9.85;2.28;;;;;;;23.08;33.19;99163.09;5047350;28;20078;-79
2021/09/13 08:15:02;;;;;;;9.13;2.00;;;;;;;23.01;33.52;99169.34;5036466;28;20048;-79
2021/09/13 08:17:32;;;;;;;18.03;2.40;;;;;;;23.14;34.36;99154.94;5003399;28;20127;-77
2021/09/13 08:20:04;;;;;;;7.95;4.80;;;;;;;23.18;34.74;99144.44;5038006;28;20040;-80
2021/09/13 08:22:34;;;;;;;3.28;1.88;;;;;;;23.24;33.74;99149.03;5053429;28;20055;-79
2021/09/13 08:25:06;;;;;;;4.00;1.80;;;;;;;23.08;33.49;99135.81;5021724;28;20541;-79
2021/09/13 08:27:50;;;;;;;4.53;2.00;;;;;;;23.08;33.92;99165.81;5027433;28;20109;-76
2021/09/13 08:30:21;;;;;;;11.23;2.38;;;;;;;22.88;34.76;99152.97;5020410;28;20051;-79
2021/09/13 08:32:49;;;;;;;5.10;2.00;;;;;;;22.97;34.60;99161.81;5020412;28;20087;-78
2021/09/13 08:35:18;;;;;;;6.63;1.85;;;;;;;22.82;35.05;99161.13;5052972;28;20048;-78
2021/09/13 08:37:48;;;;;;;6.60;2.08;;;;;;;22.71;35.34;99151.66;5036461;28;20147;-79
2021/09/13 08:40:14;;;;;;;3.55;2.13;;;;;;;22.57;35.33;99164.44;5053296;28;20044;-80
2021/09/13 08:42:50;;;;;;;9.18;2.00;;;;;;;22.46;35.59;99135.88;5004162;28;20080;-79
2021/09/13 08:45:25;;;;;;;7.18;2.03;;;;;;;22.57;35.69;99152.66;5053005;28;20043;-80
2021/09/13 08:48:03;;;;;;;2.42;1.80;;;;;;;22.64;35.81;99143.50;5031573;28;20036;-81
2021/09/13 08:50:52;;;;;;;10.95;2.42;;;;;;;22.81;35.58;99149.38;5038812;28;20048;-79
2021/09/13 08:53:25;;;;;;;6.90;2.17;;;;;;;22.84;35.51;99131.78;5038850;28;20040;-80
2021/09/13 08:55:53;;;;;;;7.53;3.17;;;;;;;23.05;36.17;99144.41;5053556;28;20044;-79
2021/09/13 08:58:22;;;;;;;5.60;2.28;;;;;;;23.20;35.58;99134.97;5046196;28;20049;-80
2021/09/13 09:00:53;;;;;;;2.88;2.30;;;;;;;23.19;35.71;99146.13;5071694;28;20059;-78
2021/09/13 09:03:19;;;;;;;5.75;2.50;;;;;;;23.72;35.25;99146.09;5073401;28;20138;-80
2021/09/13 09:05:51;;;;;;;6.95;2.65;;;;;;;24.07;34.62;99141.22;5044690;28;20040;-79
2021/09/13 09:08:26;;;;;;;3.72;2.80;;;;;;;24.32;33.77;99140.47;5044205;28;20044;-78
2021/09/13 09:10:58;;;;;;;7.03;2.55;;;;;;;24.08;34.22;99136.59;5043931;28;20184;-80
2021/09/13 09:13:27;;;;;;;7.18;2.80;;;;;;;23.97;34.75;99138.91;5044255;28;20423;-78
2021/09/13 09:15:57;;;;;;;;;;;;;;;24.27;34.33;99154.78;5035774;28;20080;-79
2021/09/13 09:18:43;;;;;;;10.23;2.58;;;;;;;24.21;34.00;99147.44;5040471;28;19966;-79
2021/09/13 09:21:12;;;;;;;9.75;2.97;;;;;;;23.92;34.60;99140.59;5075466;28;20051;-80
2021/09/13 09:23:54;;;;;;;4.23;2.50;;;;;;;23.97;34.26;99154.47;5077312;28;20127;-79
2021/09/13 09:26:22;;;;;;;8.93;2.60;;;;;;;24.05;34.87;99139.75;5061015;28;20105;-79
2021/09/13 09:28:48;;;;;;;6.43;2.45;;;;;;;23.88;34.71;99151.13;5023091;28;20072;-80
2021/09/13 09:31:15;;;;;;;5.70;2.75;;;;;;;23.70;35.08;99153.69;5023577;28;20523;-81
2021/09/13 09:33:43;;;;;;;4.57;2.90;;;;;;;23.23;35.52;99142.75;5023104;28;20078;-80
2021/09/13 09:36:12;;;;;;;3.30;2.92;;;;;;;23.09;35.83;99151.13;5042080;28;20040;-80
2021/09/13 09:38:42;;;;;;;4.75;3.25;;;;;;;23.52;35.06;99152.41;5036524;28;20047;-80
2021/09/13 09:41:16;;;;;;;4.15;2.53;;;;;;;23.55;34.85;99134.78;5026979;28;20049;-80
2021/09/13 09:44:00;;;;;;;5.93;2.47;;;;;;;24.01;34.23;99144.78;5023467;28;20043;-79
2021/09/13 09:46:40;;;;;;;10.05;3.10;;;;;;;24.33;33.40;99145.72;5064929;28;20082;-78
2021/09/13 09:49:15;;;;;;;12.05;2.88;;;;;;;24.61;33.09;99150.03;5059054;28;20119;-80
2021/09/13 09:51:51;;;;;;;10.00;3.45;;;;;;;25.17;32.96;99132.88;5028306;28;20132;-80
2021/09/13 09:54:25;;;;;;;7.68;2.58;;;;;;;25.10;32.25;99148.50;5051683;28;20044;-79
2021/09/13 09:56:59;;;;;;;5.45;2.60;;;;;;;24.98;32.59;99142.06;5057906;28;20086;-78
2021/09/13 09:59:36;;;;;;;5.35;3.22;;;;;;;24.68;32.79;99132.56;5034647;28;20054;-78
2021/09/13 10:02:16;;;;;;;7.57;2.53;;;;;;;24.41;33.28;99128.25;5085794;28;20047;-79
2021/09/13 10:04:43;;;;;;;4.07;2.40;;;;;;;24.66;33.51;99144.75;5055570;28;20040;-80
2021/09/13 10:07:13;;;;;;;3.40;2.58;;;;;;;24.57;33.17;99140.59;5082056;28;20051;-84
2021/09/13 10:09:39;;;;;;;4.95;2.60;;;;;;;24.58;33.46;99147.75;5095808;28;20047;-86
2021/09/13 10:12:06;;;;;;;6.65;2.90;;;;;;;24.28;33.54;99134.59;5077402;28;20499;-80
2021/09/13 10:14:33;;;;;;;6.68;2.67;;;;;;;23.57;34.94;99159.94;5043347;28;20040;-78
2021/09/13 10:16:58;;;;;;;3.08;2.63;;;;;;;23.23;35.16;99144.63;5059870;28;20052;-80
2021/09/13 10:19:25;;;;;;;5.95;2.85;;;;;;;22.97;36.12;99143.56;5073143;28;20139;-79
2021/09/13 10:21:52;;;;;;;8.10;2.90;;;;;;;22.83;36.07;99120.06;5039631;28;20056;-80
2021/09/13 10:24:25;;;;;;;8.00;2.90;;;;;;;22.78;36.29;99125.28;5056454;28;20040;-76
2021/09/13 10:27:11;;;;;;;6.15;2.92;;;;;;;22.41;37.10;99143.81;5056535;28;20057;-79
2021/09/13 10:29:37;;;;;;;7.75;2.88;;;;;;;22.20;37.78;99157.56;5056166;28;20052;-80
2021/09/13 10:32:05;;;;;;;6.93;3.47;;;;;;;22.24;37.54;99142.50;5039900;28;20071;-78
2021/09/13 10:34:52;;;;;;;6.25;2.95;;;;;;;22.24;37.83;99142.50;5064297;28;20045;-81
2021/09/13 10:37:22;;;;;;;4.68;2.58;;;;;;;22.12;38.12;99139.50;5075909;28;20044;-79
2021/09/13 10:39:55;;;;;;;6.32;3.08;;;;;;;22.05;38.09;99131.28;5043041;28;20047;-78
2021/09/13 10:42:41;;;;;;;8.20;3.05;;;;;;;21.85;38.86;99143.09;5060317;28;20076;-80
2021/09/13 10:45:17;;;;;;;6.63;3.00;;;;;;;21.70;39.04;99141.34;5058877;28;20036;-80
2021/09/13 10:47:49;;;;;;;8.05;3.00;;;;;;;21.77;39.08;99136.78;5093261;28;20538;-79
2021/09/13 10:50:23;;;;;;;3.60;2.83;;;;;;;21.90;38.86;99138.75;5059729;28;20130;-79
2021/09/13 10:52:54;;;;;;;6.43;3.10;;;;;;;21.99;38.64;99123.91;5077193;28;20384;-81
2021/09/13 10:55:29;;;;;;;4.82;2.92;;;;;;;22.24;39.10;99137.06;5092788;28;20094;-79
2021/09/13 10:58:03;;;;;;;5.47;3.00;;;;;;;22.25;38.52;99130.56;5075763;28;20645;-80
2021/09/13 11:00:44;;;;;;;6.68;2.67;;;;;;;22.33;38.12;99132.28;4913657;28;3277252;-81
2021/09/13 11:03:32;;;;;;;6.38;2.78;;;;;;;22.30;38.14;99111.72;5093741;28;20047;-81
2021/09/13 11:08:42;;;;;;;4.78;2.67;;;;;;;22.44;37.83;99126.22;5076650;28;20040;-80
2021/09/13 11:11:15;;;;;;;7.47;2.80;;;;;;;22.45;37.82;99128.75;5042794;28;20071;-78
2021/09/13 11:13:42;;;;;;;11.43;2.63;;;;;;;22.49;37.56;99116.41;5049036;28;20125;-80
2021/09/13 11:16:08;;;;;;;5.97;2.80;;;;;;;22.50;37.34;99118.09;5039899;28;20082;-79
2021/09/13 11:18:43;;;;;;;11.27;2.70;;;;;;;22.58;37.14;99116.22;5056845;28;20073;-79
2021/09/13 11:21:29;;;;;;;5.93;2.60;;;;;;;22.57;37.12;99106.34;5056100;28;20123;-81
2021/09/13 11:23:58;;;;;;;9.63;2.78;;;;;;;22.57;37.33;99114.53;5045590;28;20036;-81
2021/09/13 11:26:40;;;;;;;6.72;2.60;;;;;;;22.66;36.85;99111.41;5055429;28;20048;-79
2021/09/13 11:29:16;;;;;;;6.90;2.00;;;;;;;22.57;36.79;99117.25;5056422;28;20055;-81
2021/09/13 11:32:06;;;;;;;6.38;2.25;;;;;;;22.42;37.15;99122.88;5049002;28;20044;-79
2021/09/13 11:34:38;;;;;;;3.50;2.05;;;;;;;22.32;37.50;99112.38;5075449;28;20487;-79
2021/09/13 11:37:08;;;;;;;3.05;2.60;;;;;;;22.50;37.11;99109.09;5040625;28;20060;-79
2021/09/13 11:39:44;;;;;;;9.27;2.55;;;;;;;22.74;36.38;99103.03;5056134;28;20151;-80
2021/09/13 11:42:16;;;;;;;4.88;2.20;;;;;;;22.77;36.50;99093.63;5026001;28;20093;-79
2021/09/13 11:44:44;;;;;;;12.68;2.42;;;;;;;22.96;35.56;99114.63;5056207;28;20044;-77
2021/09/13 11:47:18;;;;;;;;;;;;;;;22.63;35.44;99108.25;5040183;28;20052;-78
2021/09/13 11:49:49;;;;;;;2.58;1.90;;;;;;;22.48;35.93;99106.53;5077597;28;19924;-79
2021/09/13 11:52:27;;;;;;;6.22;1.95;;;;;;;22.45;35.87;99117.00;5056390;28;20040;-79